Time;durP1;ratioP1;P1;durP2;ratioP2;P2;SDS_P1;SDS_P2;PMS_P1;PMS_P2;Temp;Humidity;BMP_temperature;BMP_pressure;BME280_temperature;BME280_humidity;BME280_pressure;Samples;Min_cycle;Max_cycle;Signal;HPM_P1;HPM_P2
2022/11/28 00:01:37;;;;;;;6.63;4.63;;;8.20;99.90;;;;;;7395958;19;20653;-79
2022/11/28 00:04:05;;;;;;;5.57;4.53;;;8.20;99.90;;;;;;7399001;19;20603;-80
2022/11/28 00:06:30;;;;;;;7.53;4.50;;;8.20;99.90;;;;;;7399334;19;20142;-80
2022/11/28 00:08:58;;;;;;;5.43;4.43;;;8.40;99.90;;;;;;7398850;19;20131;-81
2022/11/28 00:11:24;;;;;;;6.17;4.30;;;8.40;99.90;;;;;;7400875;19;20130;-79
2022/11/28 00:13:50;;;;;;;6.20;4.70;;;8.40;99.90;;;;;;7399597;19;20202;-78
2022/11/28 00:16:22;;;;;;;6.83;4.90;;;8.40;99.90;;;;;;7397140;19;20135;-79
2022/11/28 00:18:49;;;;;;;7.37;5.47;;;8.50;99.90;;;;;;7396718;19;20142;-78
2022/11/28 00:21:15;;;;;;;7.50;4.60;;;8.50;99.90;;;;;;7399661;19;20138;-80
2022/11/28 00:23:43;;;;;;;8.33;5.07;;;8.70;99.90;;;;;;7396961;19;20167;-79
2022/11/28 00:26:17;;;;;;;8.83;5.17;;;8.50;99.90;;;;;;7399803;19;20138;-79
2022/11/28 00:28:42;;;;;;;7.70;4.73;;;8.40;99.90;;;;;;7398550;19;20487;-79
2022/11/28 00:31:17;;;;;;;6.60;4.27;;;8.50;99.90;;;;;;7399103;19;20165;-79
2022/11/28 00:33:43;;;;;;;10.53;4.93;;;8.50;99.90;;;;;;7398446;19;20230;-81
2022/11/28 00:36:10;;;;;;;5.40;4.30;;;8.50;99.90;;;;;;7397511;19;20131;-78
2022/11/28 00:38:36;;;;;;;9.10;5.33;;;8.40;99.90;;;;;;7398440;19;20242;-80
2022/11/28 00:41:04;;;;;;;7.37;5.53;;;8.50;99.90;;;;;;7399830;19;20158;-79
2022/11/28 00:43:30;;;;;;;7.67;5.27;;;8.50;99.90;;;;;;7397156;19;20654;-78
2022/11/28 00:45:56;;;;;;;6.37;4.90;;;8.60;99.90;;;;;;7397809;19;20158;-79
2022/11/28 00:48:23;;;;;;;7.87;5.30;;;8.60;99.90;;;;;;7398021;19;20139;-80
2022/11/28 00:50:50;;;;;;;8.43;5.23;;;8.60;99.90;;;;;;7399306;19;20137;-80
2022/11/28 00:53:16;;;;;;;7.47;5.10;;;8.50;99.90;;;;;;7398368;19;20174;-79
2022/11/28 00:55:42;;;;;;;7.67;5.07;;;8.50;99.90;;;;;;7392256;19;20636;-80
2022/11/28 00:58:08;;;;;;;6.47;5.10;;;8.50;99.90;;;;;;7401012;19;20163;-81
2022/11/28 01:00:33;;;;;;;8.33;5.30;;;8.60;99.90;;;;;;7401243;19;20157;-80
2022/11/28 01:02:59;;;;;;;6.93;5.17;;;8.60;99.90;;;;;;7397189;19;20221;-80
2022/11/28 01:05:26;;;;;;;7.17;5.03;;;8.60;99.90;;;;;;7396540;19;20620;-80
2022/11/28 01:07:51;;;;;;;6.67;4.90;;;8.60;99.90;;;;;;7397538;19;20598;-80
2022/11/28 01:10:17;;;;;;;5.93;4.23;;;8.30;99.90;;;;;;7395990;19;20135;-79
2022/11/28 01:12:43;;;;;;;7.00;5.10;;;8.30;99.90;;;;;;7397528;19;20162;-80
2022/11/28 01:15:12;;;;;;;6.80;4.67;;;8.30;99.90;;;;;;7395689;19;20553;-79
2022/11/28 01:17:38;;;;;;;7.00;4.80;;;8.30;99.90;;;;;;7397763;19;20573;-80
2022/11/28 01:20:06;;;;;;;6.03;4.13;;;8.40;99.90;;;;;;7398960;19;20158;-81
2022/11/28 01:22:33;;;;;;;9.23;5.23;;;8.50;99.90;;;;;;7399692;19;20446;-80
2022/11/28 01:24:58;;;;;;;6.93;4.30;;;8.50;99.90;;;;;;7395583;19;20498;-80
2022/11/28 01:27:24;;;;;;;7.00;4.87;;;8.40;99.90;;;;;;7398523;19;20164;-80
2022/11/28 01:29:50;;;;;;;7.93;4.97;;;8.40;99.90;;;;;;7398144;19;20168;-79
2022/11/28 01:32:17;;;;;;;6.50;4.93;;;8.50;99.90;;;;;;7395576;19;20154;-80
2022/11/28 01:34:42;;;;;;;5.83;4.37;;;8.50;99.90;;;;;;7395287;19;20145;-80
2022/11/28 01:37:08;;;;;;;6.47;4.67;;;8.20;99.90;;;;;;7396220;19;20146;-81
2022/11/28 01:39:34;;;;;;;7.10;4.63;;;8.10;99.90;;;;;;7395141;19;20883;-80
2022/11/28 01:42:00;;;;;;;7.27;4.60;;;8.00;99.90;;;;;;7394260;19;20138;-78
2022/11/28 01:44:26;;;;;;;5.70;4.30;;;8.10;99.90;;;;;;7395732;19;20131;-79
2022/11/28 01:46:52;;;;;;;7.03;5.00;;;8.30;99.90;;;;;;7396884;19;20138;-80
2022/11/28 01:49:25;;;;;;;7.00;4.60;;;8.40;99.90;;;;;;7395078;19;20133;-80
2022/11/28 01:51:57;;;;;;;5.97;4.40;;;8.30;99.90;;;;;;7395697;19;20134;-81
2022/11/28 01:54:25;;;;;;;6.23;4.10;;;8.10;99.90;;;;;;7392697;19;20182;-79
2022/11/28 01:57:01;;;;;;;5.57;4.53;;;8.20;99.90;;;;;;7395170;19;20138;-79
2022/11/28 01:59:31;;;;;;;8.40;4.90;;;8.30;99.90;;;;;;7396537;19;20137;-79
2022/11/28 02:01:57;;;;;;;5.80;4.33;;;8.40;99.90;;;;;;7394038;19;20143;-80
2022/11/28 02:04:26;;;;;;;5.53;4.10;;;7.80;99.90;;;;;;7393295;19;20464;-80
2022/11/28 02:06:52;;;;;;;7.40;4.40;;;8.00;99.90;;;;;;7394727;19;20146;-79
2022/11/28 02:09:18;;;;;;;6.03;4.10;;;8.20;99.90;;;;;;7393366;19;20135;-80
2022/11/28 02:12:09;;;;;;;4.50;3.60;;;8.00;99.90;;;;;;7393604;19;20606;-79
2022/11/28 02:15:12;;;;;;;6.17;4.20;;;8.00;99.90;;;;;;7393942;19;20144;-79
2022/11/28 02:18:00;;;;;;;5.53;4.13;;;8.20;99.90;;;;;;7394354;19;20138;-80
2022/11/28 02:20:47;;;;;;;5.07;4.00;;;8.00;99.90;;;;;;7391799;19;20510;-81
2022/11/28 02:23:13;;;;;;;6.10;4.33;;;8.20;99.90;;;;;;7394998;19;20614;-79
2022/11/28 02:25:49;;;;;;;7.57;4.10;;;8.20;99.90;;;;;;7393630;19;20206;-80
2022/11/28 02:28:34;;;;;;;6.10;4.50;;;8.40;99.90;;;;;;7395410;19;20142;-79
2022/11/28 02:31:12;;;;;;;7.37;4.43;;;7.90;99.90;;;;;;7394605;19;20142;-82
2022/11/28 02:33:49;;;;;;;7.57;4.90;;;8.10;99.90;;;;;;7392513;19;20319;-80
2022/11/28 02:36:17;;;;;;;6.23;4.33;;;7.90;99.90;;;;;;7394833;19;20583;-80
2022/11/28 02:39:02;;;;;;;6.60;3.90;;;8.00;99.90;;;;;;7390056;19;20166;-78
2022/11/28 02:41:43;;;;;;;6.17;4.60;;;8.20;99.90;;;;;;7392355;19;20150;-80
2022/11/28 02:44:25;;;;;;;5.50;4.13;;;8.00;99.90;;;;;;7388660;19;20233;-81
2022/11/28 02:46:53;;;;;;;5.17;4.00;;;7.70;99.90;;;;;;7387541;19;20666;-81
2022/11/28 02:49:25;;;;;;;6.63;4.20;;;8.00;99.90;;;;;;7394867;19;20172;-80
2022/11/28 02:52:11;;;;;;;5.27;4.50;;;8.10;99.90;;;;;;7392095;19;20139;-79
2022/11/28 02:54:38;;;;;;;5.50;3.90;;;8.30;99.90;;;;;;7391711;19;20170;-80
2022/11/28 02:57:04;;;;;;;5.47;4.20;;;8.30;99.90;;;;;;7393349;19;20146;-81
2022/11/28 02:59:50;;;;;;;5.97;4.47;;;8.30;99.90;;;;;;7392950;19;20613;-80
2022/11/28 03:02:26;;;;;;;7.30;4.43;;;8.40;99.90;;;;;;7389080;19;20162;-81
2022/11/28 03:05:02;;;;;;;5.37;4.27;;;8.50;99.90;;;;;;7392806;19;20160;-79
2022/11/28 03:07:27;;;;;;;5.87;4.30;;;8.50;99.90;;;;;;7392492;19;20160;-80
2022/11/28 03:09:59;;;;;;;5.03;3.83;;;8.20;99.90;;;;;;7390437;19;20151;-79
2022/11/28 03:12:40;;;;;;;6.33;4.57;;;8.30;99.90;;;;;;7390342;19;20591;-81
2022/11/28 03:15:08;;;;;;;5.63;4.27;;;8.40;99.90;;;;;;7393781;19;20134;-82
2022/11/28 03:17:55;;;;;;;6.53;4.33;;;8.10;99.90;;;;;;7389040;19;20151;-80
2022/11/28 03:20:56;;;;;;;5.23;4.23;;;8.20;99.90;;;;;;7393549;19;20134;-80
2022/11/28 03:23:56;;;;;;;6.67;4.30;;;8.30;99.90;;;;;;7392932;19;20153;-80
2022/11/28 03:26:56;;;;;;;7.87;4.20;;;8.00;99.90;;;;;;7387939;19;20725;-80
2022/11/28 03:29:40;;;;;;;6.60;4.07;;;8.20;99.90;;;;;;7392173;19;20154;-80
2022/11/28 03:32:10;;;;;;;5.73;3.60;;;8.10;99.90;;;;;;7389742;19;20161;-82
2022/11/28 03:34:40;;;;;;;4.73;3.57;;;8.00;99.90;;;;;;7399334;19;20166;-81
2022/11/28 03:37:14;;;;;;;7.57;4.30;;;8.10;99.90;;;;;;7397630;19;20575;-80
2022/11/28 03:39:47;;;;;;;5.20;3.93;;;7.70;99.90;;;;;;7399518;19;20151;-80
2022/11/28 03:42:18;;;;;;;5.30;4.20;;;7.80;99.90;;;;;;7397782;19;20198;-81
2022/11/28 03:44:48;;;;;;;6.67;4.10;;;8.10;99.90;;;;;;7397404;19;20143;-79
2022/11/28 03:47:14;;;;;;;5.03;3.77;;;7.80;99.90;;;;;;7399907;19;20257;-80
2022/11/28 03:49:51;;;;;;;5.17;4.07;;;7.60;99.90;;;;;;7395569;19;20461;-80
2022/11/28 03:52:30;;;;;;;6.80;4.43;;;7.80;99.90;;;;;;7399819;19;20733;-80
2022/11/28 03:55:04;;;;;;;5.13;3.80;;;7.70;99.90;;;;;;7398977;19;20158;-80
2022/11/28 03:57:54;;;;;;;6.80;4.07;;;7.40;99.90;;;;;;7397464;19;20130;-80
2022/11/28 04:00:21;;;;;;;6.97;3.83;;;7.50;99.90;;;;;;7397304;19;20153;-81
2022/11/28 04:02:54;;;;;;;4.73;3.67;;;7.60;99.90;;;;;;7398567;19;20249;-79
2022/11/28 04:05:44;;;;;;;6.33;3.40;;;7.70;99.90;;;;;;7394693;19;20596;-79
2022/11/28 04:08:42;;;;;;;6.33;4.20;;;7.80;99.90;;;;;;7399541;19;20146;-80
2022/11/28 04:11:16;;;;;;;7.00;3.90;;;8.00;99.90;;;;;;7397890;19;20138;-79
2022/11/28 04:13:47;;;;;;;6.07;3.77;;;7.70;99.90;;;;;;7399390;19;20135;-80
2022/11/28 04:16:35;;;;;;;4.93;4.10;;;7.70;99.90;;;;;;7398498;19;20142;-81
2022/11/28 04:19:14;;;;;;;5.27;3.80;;;7.60;99.90;;;;;;7398014;19;20454;-80
2022/11/28 04:21:50;;;;;;;5.83;4.23;;;7.90;99.90;;;;;;7399999;19;20214;-81
2022/11/28 04:24:25;;;;;;;6.17;4.10;;;7.80;99.90;;;;;;7397858;19;20138;-80
2022/11/28 04:26:57;;;;;;;7.20;4.53;;;7.40;99.90;;;;;;7398843;19;20522;-81
2022/11/28 04:29:25;;;;;;;6.13;4.00;;;7.80;99.90;;;;;;7398579;19;20434;-80
2022/11/28 04:31:54;;;;;;;7.53;3.90;;;8.10;99.90;;;;;;7399397;19;20627;-81
2022/11/28 04:34:22;;;;;;;5.13;4.13;;;8.20;99.90;;;;;;7398229;19;20162;-80
2022/11/28 04:36:50;;;;;;;5.87;4.33;;;8.30;99.90;;;;;;7398902;19;20150;-80
2022/11/28 04:39:20;;;;;;;4.23;3.70;;;8.00;99.90;;;;;;7397836;19;20154;-80
2022/11/28 04:41:56;;;;;;;4.33;3.93;;;8.20;99.90;;;;;;7398469;19;20445;-78
2022/11/28 04:44:38;;;;;;;6.83;4.77;;;8.30;99.90;;;;;;7393582;19;20505;-80
2022/11/28 04:47:04;;;;;;;5.73;4.00;;;8.30;99.90;;;;;;7395410;19;20176;-79
2022/11/28 04:49:30;;;;;;;7.17;4.03;;;8.20;99.90;;;;;;7399864;19;20130;-81
2022/11/28 04:52:34;;;;;;;6.77;3.87;;;7.60;99.90;;;;;;7400169;19;20134;-79
2022/11/28 04:55:19;;;;;;;6.23;4.20;;;7.80;99.90;;;;;;7394778;19;20157;-79
2022/11/28 04:57:50;;;;;;;5.77;4.23;;;7.90;99.90;;;;;;7398951;19;20153;-81
2022/11/28 05:00:18;;;;;;;5.43;4.13;;;8.10;99.90;;;;;;7397371;19;20151;-78
2022/11/28 05:02:47;;;;;;;7.37;4.57;;;8.20;99.90;;;;;;7395945;19;20130;-80
2022/11/28 05:05:16;;;;;;;5.63;3.97;;;8.20;99.90;;;;;;7392512;19;20150;-80
2022/11/28 05:07:42;;;;;;;6.63;4.50;;;8.20;99.90;;;;;;7393203;19;20218;-79
2022/11/28 05:10:10;;;;;;;5.63;4.40;;;8.30;99.90;;;;;;7397453;19;20146;-80
2022/11/28 05:12:36;;;;;;;5.60;4.30;;;8.20;99.90;;;;;;7395197;19;20154;-80
2022/11/28 05:15:02;;;;;;;5.03;4.20;;;7.90;99.90;;;;;;7394084;19;20210;-80
2022/11/28 05:17:27;;;;;;;5.47;4.07;;;7.80;99.90;;;;;;7395987;19;20167;-80
2022/11/28 05:19:53;;;;;;;5.73;4.33;;;7.70;99.90;;;;;;7395340;19;20134;-80
2022/11/28 05:22:19;;;;;;;5.70;4.00;;;8.10;99.90;;;;;;7395907;19;20142;-82
2022/11/28 05:28:04;;;;;;;6.00;4.60;;;8.30;99.90;;;;;;7396426;19;20583;-78
2022/11/28 05:30:30;;;;;;;6.63;4.27;;;8.20;99.90;;;;;;7391040;19;20154;-79
2022/11/28 05:32:58;;;;;;;6.10;4.00;;;8.00;99.90;;;;;;7389867;19;20144;-81
2022/11/28 05:35:24;;;;;;;4.30;3.87;;;8.10;99.90;;;;;;7388547;19;20175;-80
2022/11/28 05:37:49;;;;;;;6.83;4.50;;;8.20;99.90;;;;;;7390030;19;20150;-80
2022/11/28 05:40:15;;;;;;;6.00;4.50;;;8.20;99.90;;;;;;7391957;19;20162;-80
2022/11/28 05:42:41;;;;;;;6.27;4.23;;;8.30;99.90;;;;;;7386942;19;20628;-79
2022/11/28 05:45:07;;;;;;;6.27;4.60;;;8.10;99.90;;;;;;7389925;19;20571;-78
2022/11/28 05:47:33;;;;;;;5.23;3.97;;;8.20;99.90;;;;;;7394652;19;20142;-81
2022/11/28 05:49:59;;;;;;;5.93;4.20;;;8.30;99.90;;;;;;7395022;19;20151;-80
2022/11/28 05:52:28;;;;;;;7.87;4.70;;;8.30;99.90;;;;;;7395861;19;20476;-81
2022/11/28 05:54:54;;;;;;;6.63;4.40;;;8.30;99.90;;;;;;7393146;19;20147;-82
2022/11/28 05:57:20;;;;;;;9.27;4.73;;;8.20;99.90;;;;;;7393915;19;20150;-80
2022/11/28 05:59:45;;;;;;;5.77;4.70;;;8.20;99.90;;;;;;7394856;19;20153;-81
2022/11/28 06:02:11;;;;;;;4.77;3.87;;;8.10;99.90;;;;;;7393289;19;20214;-81
2022/11/28 06:04:40;;;;;;;6.17;4.47;;;8.10;99.90;;;;;;7392824;19;20540;-81
2022/11/28 06:07:06;;;;;;;7.73;5.20;;;8.20;99.90;;;;;;7393166;19;20150;-79
2022/11/28 06:09:32;;;;;;;6.30;4.53;;;8.20;99.90;;;;;;7393037;19;20138;-80
2022/11/28 06:11:58;;;;;;;10.17;4.07;;;8.20;99.90;;;;;;7393107;19;20131;-81
2022/11/28 06:14:24;;;;;;;6.47;3.80;;;8.20;99.90;;;;;;7392163;19;20567;-79
2022/11/28 06:16:49;;;;;;;7.70;4.73;;;8.30;99.90;;;;;;7392095;19;20622;-80
2022/11/28 06:19:15;;;;;;;5.13;4.10;;;8.20;99.90;;;;;;7393843;19;20146;-80
2022/11/28 06:21:41;;;;;;;7.43;4.40;;;7.70;99.90;;;;;;7393264;19;20167;-80
2022/11/28 06:24:09;;;;;;;5.87;4.23;;;7.50;99.90;;;;;;7392068;19;20146;-80
2022/11/28 06:26:35;;;;;;;5.17;4.07;;;7.80;99.90;;;;;;7393577;19;20218;-79
2022/11/28 06:29:01;;;;;;;6.20;4.30;;;8.00;99.90;;;;;;7392418;19;20152;-80
2022/11/28 06:31:28;;;;;;;5.57;4.17;;;8.10;99.90;;;;;;7388774;19;20593;-80
2022/11/28 06:33:55;;;;;;;4.73;4.17;;;8.20;99.90;;;;;;7392525;19;20134;-81
2022/11/28 06:36:20;;;;;;;6.23;4.27;;;8.30;99.90;;;;;;7387999;19;20143;-81
2022/11/28 06:38:47;;;;;;;6.43;4.20;;;8.30;99.90;;;;;;7395799;19;20156;-79
2022/11/28 06:41:15;;;;;;;7.00;4.70;;;8.20;99.90;;;;;;7394945;19;20142;-80
2022/11/28 06:43:41;;;;;;;8.03;4.63;;;8.20;99.90;;;;;;7390953;19;20155;-80
2022/11/28 06:46:13;;;;;;;6.37;4.83;;;8.10;99.90;;;;;;7390077;19;20218;-80
2022/11/28 06:48:38;;;;;;;6.63;4.80;;;8.30;99.90;;;;;;7390701;19;20146;-81
2022/11/28 06:51:05;;;;;;;9.30;4.80;;;8.30;99.90;;;;;;7391399;19;20135;-81
2022/11/28 06:53:33;;;;;;;6.63;4.70;;;8.30;99.90;;;;;;7392776;19;20149;-83
2022/11/28 06:56:07;;;;;;;5.30;4.57;;;8.10;99.90;;;;;;7388921;19;20263;-81
2022/11/28 06:58:34;;;;;;;8.00;5.00;;;8.10;99.90;;;;;;7390829;19;20634;-80
2022/11/28 07:01:09;;;;;;;7.57;4.50;;;8.10;99.90;;;;;;7385141;19;20881;-82
2022/11/28 07:03:36;;;;;;;6.20;4.43;;;8.30;99.90;;;;;;7391141;19;20617;-81
2022/11/28 07:06:02;;;;;;;6.57;4.63;;;8.30;99.90;;;;;;7393035;19;20144;-82
2022/11/28 07:08:29;;;;;;;7.47;4.67;;;8.40;99.90;;;;;;7391773;19;20452;-80
2022/11/28 07:10:56;;;;;;;7.73;4.50;;;8.40;99.90;;;;;;7390959;19;20135;-82
2022/11/28 07:13:23;;;;;;;5.93;4.53;;;8.40;99.90;;;;;;7394869;19;20277;-81
2022/11/28 07:15:50;;;;;;;6.57;4.60;;;8.40;99.90;;;;;;7392785;19;20154;-80
2022/11/28 07:18:16;;;;;;;7.30;4.80;;;8.60;99.90;;;;;;7391904;19;20164;-80
2022/11/28 07:20:42;;;;;;;7.00;4.30;;;8.50;99.90;;;;;;7390021;19;20123;-81
2022/11/28 07:23:08;;;;;;;6.67;4.63;;;8.20;99.90;;;;;;7389967;19;20154;-82
2022/11/28 07:25:34;;;;;;;8.80;4.20;;;8.30;99.90;;;;;;7385717;19;20198;-81
2022/11/28 07:27:59;;;;;;;9.00;4.97;;;8.40;99.90;;;;;;7389875;19;20143;-80
2022/11/28 07:30:25;;;;;;;7.10;4.80;;;8.50;99.90;;;;;;7390645;19;20127;-83
2022/11/28 07:32:51;;;;;;;7.60;5.50;;;8.50;99.90;;;;;;7387993;19;20154;-82
2022/11/28 07:35:17;;;;;;;7.73;4.27;;;8.50;99.90;;;;;;7387034;19;20134;-81
2022/11/28 07:37:42;;;;;;;10.63;4.63;;;8.40;99.90;;;;;;7389249;19;20137;-82
2022/11/28 07:40:09;;;;;;;11.00;5.40;;;8.30;99.90;;;;;;7390354;19;20461;-83
2022/11/28 07:42:35;;;;;;;8.77;4.43;;;8.30;99.90;;;;;;7389619;19;20173;-81
2022/11/28 07:45:01;;;;;;;5.63;4.30;;;8.50;99.90;;;;;;7387639;19;20139;-79
2022/11/28 07:47:27;;;;;;;9.50;5.67;;;8.50;99.90;;;;;;7389660;19;20160;-82
2022/11/28 07:49:53;;;;;;;9.47;4.77;;;8.50;99.90;;;;;;7390938;19;20150;-81
2022/11/28 07:52:18;;;;;;;9.03;5.20;;;8.40;99.90;;;;;;7392881;19;20154;-82
2022/11/28 07:54:44;;;;;;;7.50;4.83;;;8.50;99.90;;;;;;7389501;19;20162;-82
2022/11/28 07:57:10;;;;;;;6.87;4.57;;;8.50;99.90;;;;;;7391600;19;20150;-82
2022/11/28 07:59:36;;;;;;;7.17;4.83;;;8.50;99.90;;;;;;7392557;19;20173;-80
2022/11/28 08:02:04;;;;;;;6.17;4.20;;;8.40;99.90;;;;;;7385413;19;20174;-82
2022/11/28 08:04:30;;;;;;;7.43;4.93;;;8.10;99.90;;;;;;7388625;19;20211;-82
2022/11/28 08:06:57;;;;;;;6.53;4.60;;;8.20;99.90;;;;;;7388246;19;20192;-82
2022/11/28 08:09:22;;;;;;;7.13;4.87;;;8.40;99.90;;;;;;7390101;19;20171;-83
2022/11/28 08:11:50;;;;;;;5.50;4.40;;;8.50;99.90;;;;;;7393648;19;20138;-80
2022/11/28 08:14:15;;;;;;;6.83;4.13;;;8.60;99.90;;;;;;7393236;19;20129;-80
2022/11/28 08:16:43;;;;;;;7.30;4.40;;;8.60;99.90;;;;;;7398440;19;20143;-80
2022/11/28 08:19:09;;;;;;;7.57;4.37;;;8.60;99.90;;;;;;7400084;19;20180;-80
2022/11/28 08:21:36;;;;;;;5.77;4.47;;;8.60;99.90;;;;;;7402417;19;20163;-80
2022/11/28 08:24:03;;;;;;;14.37;8.47;;;8.60;99.90;;;;;;7403107;19;20170;-81
2022/11/28 08:26:30;;;;;;;8.47;5.87;;;8.30;99.90;;;;;;7397976;19;20130;-83
2022/11/28 08:28:57;;;;;;;6.77;4.50;;;8.30;99.90;;;;;;7403647;19;20119;-81
2022/11/28 08:31:42;;;;;;;10.30;4.97;;;8.50;99.90;;;;;;7397068;19;20135;-83
2022/11/28 08:34:09;;;;;;;5.53;4.10;;;8.40;99.90;;;;;;7397914;19;20148;-80
2022/11/28 08:36:36;;;;;;;6.43;4.80;;;8.40;99.90;;;;;;7397287;19;20221;-82
2022/11/28 08:39:03;;;;;;;7.43;4.43;;;8.60;99.90;;;;;;7401925;19;20130;-82
2022/11/28 08:41:29;;;;;;;7.13;5.63;;;8.80;99.90;;;;;;7402067;19;20130;-82
2022/11/28 08:43:54;;;;;;;6.60;4.67;;;8.70;99.90;;;;;;7397061;19;20150;-81
2022/11/28 08:46:21;;;;;;;14.90;9.40;;;8.60;99.90;;;;;;7401072;19;20163;-81
2022/11/28 08:48:49;;;;;;;9.70;5.43;;;8.70;99.90;;;;;;7398008;19;20135;-81
2022/11/28 08:51:17;;;;;;;10.30;5.47;;;8.80;99.90;;;;;;7400147;19;20601;-82
2022/11/28 08:53:44;;;;;;;9.40;4.67;;;8.70;99.90;;;;;;7406871;19;20135;-80
2022/11/28 08:56:10;;;;;;;7.00;5.03;;;8.80;99.90;;;;;;7396458;19;20230;-84
2022/11/28 08:58:36;;;;;;;5.53;4.20;;;8.80;99.90;;;;;;7404949;19;20937;-82
2022/11/28 09:01:02;;;;;;;10.50;5.23;;;8.80;99.90;;;;;;7400053;19;20139;-82
2022/11/28 09:03:28;;;;;;;6.47;4.40;;;8.80;99.90;;;;;;7398107;19;20141;-83
2022/11/28 09:06:01;;;;;;;9.50;5.03;;;8.80;99.90;;;;;;7403412;19;20127;-81
2022/11/28 09:08:26;;;;;;;8.67;4.77;;;8.90;99.90;;;;;;7401627;19;20154;-83
2022/11/28 09:10:52;;;;;;;8.80;4.90;;;8.80;99.90;;;;;;7399576;19;20146;-84
2022/11/28 09:13:18;;;;;;;9.00;5.10;;;8.80;99.90;;;;;;7400161;19;20139;-84
2022/11/28 09:15:45;;;;;;;10.33;5.73;;;8.80;99.90;;;;;;7405611;19;20237;-84
2022/11/28 09:18:12;;;;;;;8.93;6.53;;;8.90;99.90;;;;;;7399870;19;20499;-83
2022/11/28 09:20:38;;;;;;;8.93;5.93;;;8.90;99.90;;;;;;7398783;19;20134;-84
2022/11/28 09:23:04;;;;;;;6.73;5.20;;;9.00;99.90;;;;;;7397252;19;20169;-84
2022/11/28 09:25:33;;;;;;;11.47;5.33;;;8.90;99.90;;;;;;7399357;19;20147;-84
2022/11/28 09:28:00;;;;;;;7.83;5.63;;;9.00;99.90;;;;;;7395049;19;20150;-81
2022/11/28 09:30:26;;;;;;;8.53;5.33;;;9.00;99.90;;;;;;7395218;19;20135;-84
2022/11/28 09:32:53;;;;;;;7.40;5.10;;;8.90;99.90;;;;;;7397739;19;20145;-83
2022/11/28 09:35:19;;;;;;;8.70;5.30;;;9.00;99.90;;;;;;7394609;19;20150;-81
2022/11/28 09:37:44;;;;;;;8.63;5.33;;;9.00;99.90;;;;;;7400881;19;20147;-84
2022/11/28 09:40:17;;;;;;;19.30;10.17;;;9.10;99.90;;;;;;7404613;19;20171;-85
2022/11/28 09:42:43;;;;;;;15.07;6.57;;;9.10;99.90;;;;;;7394444;19;20170;-83
2022/11/28 09:45:16;;;;;;;9.47;5.73;;;9.20;99.90;;;;;;7393863;19;20880;-83
2022/11/28 09:47:47;;;;;;;8.13;5.43;;;9.20;99.90;;;;;;7407330;19;20127;-83
2022/11/28 09:50:19;;;;;;;10.40;4.90;;;9.30;99.90;;;;;;7394827;19;20143;-82
2022/11/28 09:52:58;;;;;;;12.87;5.60;;;9.20;99.90;;;;;;7407558;19;20126;-83
2022/11/28 09:55:33;;;;;;;9.70;5.63;;;9.20;99.90;;;;;;7393865;19;20142;-82
2022/11/28 09:58:05;;;;;;;8.37;6.00;;;9.20;99.90;;;;;;7395071;19;20134;-82
2022/11/28 10:01:00;;;;;;;8.73;5.20;;;9.20;99.90;;;;;;7395419;19;20138;-84
2022/11/28 10:03:35;;;;;;;9.17;5.27;;;9.30;99.90;;;;;;7392585;19;20516;-83
2022/11/28 10:06:13;;;;;;;7.27;5.03;;;9.30;99.90;;;;;;7391211;19;20572;-83
2022/11/28 10:08:42;;;;;;;7.23;5.40;;;9.30;99.90;;;;;;7398405;19;20152;-82
2022/11/28 10:11:26;;;;;;;8.00;5.57;;;9.20;99.90;;;;;;7404194;19;20135;-82
2022/11/28 10:14:23;;;;;;;7.33;5.20;;;9.00;99.90;;;;;;7396578;19;20537;-83
2022/11/28 10:17:04;;;;;;;8.90;5.50;;;9.20;99.90;;;;;;7393870;19;20591;-84
2022/11/28 10:19:39;;;;;;;9.53;6.47;;;9.20;99.90;;;;;;7393119;19;20159;-82
2022/11/28 10:22:12;;;;;;;7.67;5.10;;;9.40;99.90;;;;;;7393203;19;20138;-81
2022/11/28 10:24:43;;;;;;;9.03;5.20;;;9.40;99.90;;;;;;7399958;19;20135;-84
2022/11/28 10:27:12;;;;;;;9.97;5.57;;;9.40;99.90;;;;;;7397902;19;20134;-81
2022/11/28 10:29:48;;;;;;;7.53;5.40;;;9.50;99.90;;;;;;7397586;19;20150;-79
2022/11/28 10:32:23;;;;;;;9.27;5.77;;;9.50;99.90;;;;;;7396621;19;20123;-79
2022/11/28 10:35:13;;;;;;;7.67;5.33;;;9.40;99.90;;;;;;7394604;19;20135;-77
2022/11/28 10:37:39;;;;;;;8.93;5.13;;;9.40;99.90;;;;;;7398700;19;20138;-79
2022/11/28 10:40:19;;;;;;;9.00;4.83;;;9.70;99.90;;;;;;7392458;19;20131;-77
2022/11/28 10:42:49;;;;;;;8.67;4.90;;;9.40;99.90;;;;;;7391778;19;20150;-77
2022/11/28 10:45:21;;;;;;;6.57;4.90;;;9.40;99.90;;;;;;7392022;19;20142;-78
2022/11/28 10:48:14;;;;;;;7.30;5.23;;;9.60;99.90;;;;;;7393120;19;20162;-78
2022/11/28 10:51:12;;;;;;;9.33;5.50;;;9.60;99.90;;;;;;7391808;19;20153;-79
2022/11/28 10:53:59;;;;;;;8.37;5.17;;;9.50;99.90;;;;;;7392334;19;20202;-80
2022/11/28 10:56:56;;;;;;;7.07;4.97;;;9.60;99.90;;;;;;7391007;19;20149;-81
2022/11/28 10:59:28;;;;;;;6.17;4.60;;;9.70;99.90;;;;;;7393193;19;20155;-82
2022/11/28 11:01:55;;;;;;;9.10;5.50;;;9.70;99.90;;;;;;7392708;19;20473;-82
2022/11/28 11:04:25;;;;;;;7.93;5.37;;;9.70;99.90;;;;;;7393804;19;20126;-84
2022/11/28 11:07:05;;;;;;;9.83;5.40;;;9.60;99.90;;;;;;7392837;19;20217;-82
2022/11/28 11:09:30;;;;;;;11.83;6.13;;;9.70;99.90;;;;;;7393026;19;20163;-83
2022/11/28 11:11:59;;;;;;;7.97;5.03;;;9.70;99.90;;;;;;7391280;19;20603;-85
2022/11/28 11:14:35;;;;;;;5.73;4.87;;;9.70;99.90;;;;;;7391764;19;20518;-83
2022/11/28 11:17:01;;;;;;;9.93;5.93;;;9.80;99.90;;;;;;7391754;19;20142;-83
2022/11/28 11:19:35;;;;;;;8.27;4.83;;;9.80;99.90;;;;;;7392670;19;20155;-85
2022/11/28 11:22:13;;;;;;;11.27;5.10;;;9.60;99.90;;;;;;7392815;19;20313;-83
2022/11/28 11:24:39;;;;;;;10.13;5.33;;;9.60;99.90;;;;;;7391301;19;20138;-83
2022/11/28 11:27:20;;;;;;;8.77;5.43;;;9.60;99.90;;;;;;7389460;19;20338;-82
2022/11/28 11:29:46;;;;;;;9.47;5.70;;;9.70;99.90;;;;;;7390529;19;20171;-81
2022/11/28 11:32:23;;;;;;;8.87;5.20;;;9.60;99.90;;;;;;7394385;19;20139;-82
2022/11/28 11:34:50;;;;;;;8.47;5.47;;;9.70;99.90;;;;;;7390285;19;20131;-81
2022/11/28 11:37:30;;;;;;;11.60;6.07;;;9.80;99.90;;;;;;7394498;19;20174;-82
2022/11/28 11:39:55;;;;;;;10.13;6.00;;;9.60;99.90;;;;;;7394364;19;20135;-81
2022/11/28 11:42:25;;;;;;;9.10;5.17;;;9.80;99.90;;;;;;7390784;19;20142;-82
2022/11/28 11:44:51;;;;;;;8.27;5.97;;;9.90;99.90;;;;;;7389602;19;20135;-83
2022/11/28 11:47:17;;;;;;;29.90;18.30;;;9.80;99.90;;;;;;7392325;19;20150;-83
2022/11/28 11:50:00;;;;;;;11.40;7.20;;;9.40;99.90;;;;;;7389357;19;20145;-83
2022/11/28 11:52:26;;;;;;;9.27;6.43;;;9.60;99.90;;;;;;7391685;19;20218;-83
2022/11/28 11:54:57;;;;;;;12.07;6.27;;;9.70;99.90;;;;;;7400470;19;20191;-84
2022/11/28 11:57:32;;;;;;;10.40;6.27;;;9.70;99.90;;;;;;7399642;19;20135;-82
2022/11/28 12:00:05;;;;;;;10.43;6.30;;;9.80;99.90;;;;;;7397505;19;20170;-83
2022/11/28 12:02:46;;;;;;;8.60;5.87;;;9.70;99.90;;;;;;7397982;19;20167;-83
2022/11/28 12:05:39;;;;;;;7.73;6.10;;;9.80;99.90;;;;;;7395311;19;20460;-83
2022/11/28 12:08:10;;;;;;;12.53;6.70;;;9.80;99.90;;;;;;7397798;19;20213;-83
2022/11/28 12:10:45;;;;;;;10.87;6.03;;;9.80;99.90;;;;;;7399614;19;20630;-84
2022/11/28 12:13:28;;;;;;;10.17;6.23;;;9.80;99.90;;;;;;7398021;19;20138;-83
2022/11/28 12:16:19;;;;;;;11.57;6.10;;;9.90;99.90;;;;;;7398086;19;20146;-83
2022/11/28 12:18:59;;;;;;;9.97;6.43;;;9.80;99.90;;;;;;7398078;19;20590;-83
2022/11/28 12:21:52;;;;;;;8.97;6.17;;;9.80;99.90;;;;;;7403697;19;20158;-82
2022/11/28 12:24:29;;;;;;;10.53;6.17;;;9.80;99.90;;;;;;7396254;19;20166;-82
2022/11/28 12:27:10;;;;;;;9.97;6.50;;;9.90;99.90;;;;;;7398821;19;20141;-84
2022/11/28 12:29:50;;;;;;;10.33;6.33;;;9.90;99.90;;;;;;7396139;19;20145;-82
2022/11/28 12:32:49;;;;;;;12.63;7.47;;;10.00;99.90;;;;;;7402283;19;20138;-84
2022/11/28 12:35:31;;;;;;;7.87;5.77;;;9.90;99.90;;;;;;7416895;19;20146;-87
2022/11/28 12:38:25;;;;;;;10.00;6.93;;;9.90;99.90;;;;;;7396831;19;20135;-86
2022/11/28 12:41:02;;;;;;;10.00;6.73;;;9.90;99.90;;;;;;7399123;19;20147;-87
2022/11/28 12:43:42;;;;;;;10.53;6.80;;;9.90;99.90;;;;;;7399290;19;20174;-85
2022/11/28 12:46:08;;;;;;;9.17;6.87;;;9.90;99.90;;;;;;7401037;19;20135;-86
2022/11/28 12:49:01;;;;;;;12.43;7.33;;;9.90;99.90;;;;;;7416829;19;20134;-87
2022/11/28 12:52:03;;;;;;;8.03;6.07;;;9.90;99.90;;;;;;7399042;19;20328;-86
2022/11/28 12:54:43;;;;;;;14.60;9.20;;;9.90;99.90;;;;;;7399830;19;20142;-85
2022/11/28 12:57:29;;;;;;;22.17;14.73;;;9.90;99.90;;;;;;7404091;19;20127;-85
2022/11/28 13:00:09;;;;;;;15.23;9.53;;;10.00;99.90;;;;;;7398144;19;20133;-84
2022/11/28 13:03:03;;;;;;;20.80;12.97;;;10.00;99.90;;;;;;7397770;19;20138;-85
2022/11/28 13:06:01;;;;;;;15.27;9.13;;;9.80;99.90;;;;;;7393711;19;20134;-83
2022/11/28 13:08:45;;;;;;;10.37;6.70;;;9.90;99.90;;;;;;7396805;19;20198;-85
2022/11/28 13:11:42;;;;;;;11.83;6.97;;;10.00;99.90;;;;;;7397437;19;20235;-85
2022/11/28 13:14:32;;;;;;;12.77;7.67;;;10.10;99.90;;;;;;7396770;19;20154;-84
2022/11/28 13:17:25;;;;;;;9.23;7.30;;;10.10;99.90;;;;;;7394460;19;20150;-82
2022/11/28 13:20:01;;;;;;;11.47;7.27;;;10.10;99.90;;;;;;7394317;19;20143;-85
2022/11/28 13:22:52;;;;;;;14.03;7.73;;;10.10;99.90;;;;;;7395376;19;20444;-85
2022/11/28 13:25:47;;;;;;;13.93;7.90;;;10.10;99.90;;;;;;7393757;19;20699;-86